sensor_id;sensor_type;location;lat;lon;timestamp;temperature;humidity
18252;DHT22;26917;52.328;20.878;2023-02-28T00:01:29;-3.30;99.90
18252;DHT22;26917;52.328;20.878;2023-02-28T00:04:00;-2.30;99.90
18252;DHT22;26917;52.328;20.878;2023-02-28T00:06:28;-2.40;99.90
18252;DHT22;26917;52.328;20.878;2023-02-28T00:08:57;-3.40;99.90
18252;DHT22;26917;52.328;20.878;2023-02-28T00:11:25;-3.40;99.90
18252;DHT22;26917;52.328;20.878;2023-02-28T00:13:54;-2.80;99.90
18252;DHT22;26917;52.328;20.878;2023-02-28T00:16:22;-2.20;99.90
18252;DHT22;26917;52.328;20.878;2023-02-28T00:18:51;-2.40;99.90
18252;DHT22;26917;52.328;20.878;2023-02-28T00:21:21;-3.30;99.90
18252;DHT22;26917;52.328;20.878;2023-02-28T00:23:50;-3.20;99.90
18252;DHT22;26917;52.328;20.878;2023-02-28T00:26:19;-3.20;99.90
18252;DHT22;26917;52.328;20.878;2023-02-28T00:28:49;-3.40;99.90
18252;DHT22;26917;52.328;20.878;2023-02-28T00:31:19;-3.10;99.90
18252;DHT22;26917;52.328;20.878;2023-02-28T00:33:47;-2.70;99.90
18252;DHT22;26917;52.328;20.878;2023-02-28T00:36:16;-3.40;99.90
18252;DHT22;26917;52.328;20.878;2023-02-28T00:38:48;-3.80;99.90
18252;DHT22;26917;52.328;20.878;2023-02-28T00:41:16;-3.10;99.90
18252;DHT22;26917;52.328;20.878;2023-02-28T00:43:47;-4.30;99.90
18252;DHT22;26917;52.328;20.878;2023-02-28T00:46:15;-2.70;99.90
18252;DHT22;26917;52.328;20.878;2023-02-28T00:48:43;-4.30;99.90
18252;DHT22;26917;52.328;20.878;2023-02-28T00:51:12;-3.00;99.90
18252;DHT22;26917;52.328;20.878;2023-02-28T00:53:40;-4.30;99.90
18252;DHT22;26917;52.328;20.878;2023-02-28T00:56:10;-3.80;99.90
18252;DHT22;26917;52.328;20.878;2023-02-28T00:58:38;-3.20;99.90
18252;DHT22;26917;52.328;20.878;2023-02-28T01:01:07;-3.70;99.90
18252;DHT22;26917;52.328;20.878;2023-02-28T01:03:37;-3.10;99.90
18252;DHT22;26917;52.328;20.878;2023-02-28T01:06:06;-3.40;99.90
18252;DHT22;26917;52.328;20.878;2023-02-28T01:08:34;-3.90;99.90
18252;DHT22;26917;52.328;20.878;2023-02-28T01:11:09;-2.70;99.90
18252;DHT22;26917;52.328;20.878;2023-02-28T01:13:39;-4.10;99.90
18252;DHT22;26917;52.328;20.878;2023-02-28T01:16:08;-2.50;99.90
18252;DHT22;26917;52.328;20.878;2023-02-28T01:18:37;-4.10;99.90
18252;DHT22;26917;52.328;20.878;2023-02-28T01:21:08;-2.40;99.90
18252;DHT22;26917;52.328;20.878;2023-02-28T01:23:37;-4.20;99.90
18252;DHT22;26917;52.328;20.878;2023-02-28T01:26:06;-4.10;99.90
18252;DHT22;26917;52.328;20.878;2023-02-28T01:28:40;-3.30;99.90
18252;DHT22;26917;52.328;20.878;2023-02-28T01:31:09;-3.40;99.90
18252;DHT22;26917;52.328;20.878;2023-02-28T01:33:38;-3.20;99.90
18252;DHT22;26917;52.328;20.878;2023-02-28T01:36:10;-2.40;99.90
18252;DHT22;26917;52.328;20.878;2023-02-28T01:38:39;-3.70;99.90
18252;DHT22;26917;52.328;20.878;2023-02-28T01:41:09;-2.90;99.90
18252;DHT22;26917;52.328;20.878;2023-02-28T01:44:01;-2.50;99.90
18252;DHT22;26917;52.328;20.878;2023-02-28T01:46:34;-4.20;99.90
18252;DHT22;26917;52.328;20.878;2023-02-28T01:49:06;-4.10;99.90
18252;DHT22;26917;52.328;20.878;2023-02-28T01:51:39;-3.80;99.90
18252;DHT22;26917;52.328;20.878;2023-02-28T01:54:16;-4.30;99.90
18252;DHT22;26917;52.328;20.878;2023-02-28T01:56:49;-3.50;99.90
18252;DHT22;26917;52.328;20.878;2023-02-28T01:59:24;-3.40;99.90
18252;DHT22;26917;52.328;20.878;2023-02-28T02:01:55;-4.00;99.90
18252;DHT22;26917;52.328;20.878;2023-02-28T02:04:26;-4.20;99.90
18252;DHT22;26917;52.328;20.878;2023-02-28T02:06:55;-2.80;99.90
18252;DHT22;26917;52.328;20.878;2023-02-28T02:09:23;-4.40;99.90
18252;DHT22;26917;52.328;20.878;2023-02-28T02:11:54;-4.30;99.90
18252;DHT22;26917;52.328;20.878;2023-02-28T02:14:41;-2.90;99.90
18252;DHT22;26917;52.328;20.878;2023-02-28T02:17:20;-4.40;99.90
18252;DHT22;26917;52.328;20.878;2023-02-28T02:20:16;-3.20;99.90
18252;DHT22;26917;52.328;20.878;2023-02-28T02:25:58;-4.50;99.90
18252;DHT22;26917;52.328;20.878;2023-02-28T02:28:54;-3.10;99.90
18252;DHT22;26917;52.328;20.878;2023-02-28T02:31:56;-3.70;99.90
18252;DHT22;26917;52.328;20.878;2023-02-28T02:34:41;-4.90;99.90
18252;DHT22;26917;52.328;20.878;2023-02-28T02:37:18;-4.60;99.90
18252;DHT22;26917;52.328;20.878;2023-02-28T02:39:55;-3.70;99.90
18252;DHT22;26917;52.328;20.878;2023-02-28T02:42:29;-5.10;99.90
18252;DHT22;26917;52.328;20.878;2023-02-28T02:45:03;-3.40;99.90
18252;DHT22;26917;52.328;20.878;2023-02-28T02:47:33;-4.60;99.90
18252;DHT22;26917;52.328;20.878;2023-02-28T02:50:07;-4.40;99.90
18252;DHT22;26917;52.328;20.878;2023-02-28T02:52:39;-4.70;99.90
18252;DHT22;26917;52.328;20.878;2023-02-28T02:55:12;-5.00;99.90
18252;DHT22;26917;52.328;20.878;2023-02-28T02:57:45;-4.80;99.90
18252;DHT22;26917;52.328;20.878;2023-02-28T03:00:17;-4.40;99.90
18252;DHT22;26917;52.328;20.878;2023-02-28T03:02:49;-4.70;99.90
18252;DHT22;26917;52.328;20.878;2023-02-28T03:05:25;-4.30;99.90
18252;DHT22;26917;52.328;20.878;2023-02-28T03:07:54;-4.90;99.90
18252;DHT22;26917;52.328;20.878;2023-02-28T03:10:32;-4.40;99.90
18252;DHT22;26917;52.328;20.878;2023-02-28T03:13:30;-4.90;99.90
18252;DHT22;26917;52.328;20.878;2023-02-28T03:16:23;-4.90;99.90
18252;DHT22;26917;52.328;20.878;2023-02-28T03:19:06;-5.00;99.90
18252;DHT22;26917;52.328;20.878;2023-02-28T03:21:44;-3.90;99.90
18252;DHT22;26917;52.328;20.878;2023-02-28T03:24:19;-4.40;99.90
18252;DHT22;26917;52.328;20.878;2023-02-28T03:26:53;-4.10;99.90
18252;DHT22;26917;52.328;20.878;2023-02-28T03:29:26;-4.70;99.90
18252;DHT22;26917;52.328;20.878;2023-02-28T03:32:02;-4.20;99.90
18252;DHT22;26917;52.328;20.878;2023-02-28T03:34:34;-4.00;99.90
18252;DHT22;26917;52.328;20.878;2023-02-28T03:37:09;-3.40;99.90
18252;DHT22;26917;52.328;20.878;2023-02-28T03:39:42;-5.20;99.90
18252;DHT22;26917;52.328;20.878;2023-02-28T03:42:15;-5.30;99.90
18252;DHT22;26917;52.328;20.878;2023-02-28T03:44:46;-4.40;99.90
18252;DHT22;26917;52.328;20.878;2023-02-28T03:47:19;-4.00;99.90
18252;DHT22;26917;52.328;20.878;2023-02-28T03:49:54;-4.00;99.90
18252;DHT22;26917;52.328;20.878;2023-02-28T03:52:28;-3.50;99.90
18252;DHT22;26917;52.328;20.878;2023-02-28T03:55:02;-5.50;99.90
18252;DHT22;26917;52.328;20.878;2023-02-28T03:57:37;-4.20;99.90
18252;DHT22;26917;52.328;20.878;2023-02-28T04:00:12;-5.20;99.90
18252;DHT22;26917;52.328;20.878;2023-02-28T04:02:41;-5.20;99.90
18252;DHT22;26917;52.328;20.878;2023-02-28T04:05:09;-3.90;99.90
18252;DHT22;26917;52.328;20.878;2023-02-28T04:07:39;-4.40;99.90
18252;DHT22;26917;52.328;20.878;2023-02-28T04:10:09;-5.40;99.90
18252;DHT22;26917;52.328;20.878;2023-02-28T04:12:39;-5.30;99.90
18252;DHT22;26917;52.328;20.878;2023-02-28T04:15:08;-5.30;99.90
18252;DHT22;26917;52.328;20.878;2023-02-28T04:17:37;-5.30;99.90
18252;DHT22;26917;52.328;20.878;2023-02-28T04:20:06;-4.40;99.90
18252;DHT22;26917;52.328;20.878;2023-02-28T04:22:38;-5.40;99.90
18252;DHT22;26917;52.328;20.878;2023-02-28T04:25:07;-5.20;99.90
18252;DHT22;26917;52.328;20.878;2023-02-28T04:27:36;-5.30;99.90
18252;DHT22;26917;52.328;20.878;2023-02-28T04:30:05;-4.70;99.90
18252;DHT22;26917;52.328;20.878;2023-02-28T04:32:34;-5.40;99.90
18252;DHT22;26917;52.328;20.878;2023-02-28T04:35:03;-5.50;99.90
18252;DHT22;26917;52.328;20.878;2023-02-28T04:37:31;-5.50;99.90
18252;DHT22;26917;52.328;20.878;2023-02-28T04:40:03;-4.60;99.90
18252;DHT22;26917;52.328;20.878;2023-02-28T04:42:32;-5.50;99.90
18252;DHT22;26917;52.328;20.878;2023-02-28T04:45:03;-5.50;99.90
18252;DHT22;26917;52.328;20.878;2023-02-28T04:47:31;-5.50;99.90
18252;DHT22;26917;52.328;20.878;2023-02-28T04:49:59;-5.10;99.90
18252;DHT22;26917;52.328;20.878;2023-02-28T04:52:28;-5.00;99.90
18252;DHT22;26917;52.328;20.878;2023-02-28T04:54:56;-5.70;99.90
18252;DHT22;26917;52.328;20.878;2023-02-28T04:57:26;-4.60;99.90
18252;DHT22;26917;52.328;20.878;2023-02-28T04:59:54;-6.30;99.90
18252;DHT22;26917;52.328;20.878;2023-02-28T05:02:22;-5.70;99.90
18252;DHT22;26917;52.328;20.878;2023-02-28T05:04:51;-5.70;99.90
18252;DHT22;26917;52.328;20.878;2023-02-28T05:07:19;-6.00;99.90
18252;DHT22;26917;52.328;20.878;2023-02-28T05:09:47;-5.70;99.90
18252;DHT22;26917;52.328;20.878;2023-02-28T05:12:16;-5.80;99.90
18252;DHT22;26917;52.328;20.878;2023-02-28T05:14:45;-5.70;99.90
18252;DHT22;26917;52.328;20.878;2023-02-28T05:17:14;-5.70;99.90
18252;DHT22;26917;52.328;20.878;2023-02-28T05:19:42;-5.70;99.90
18252;DHT22;26917;52.328;20.878;2023-02-28T05:22:14;-5.80;99.90
18252;DHT22;26917;52.328;20.878;2023-02-28T05:24:43;-5.70;99.90
18252;DHT22;26917;52.328;20.878;2023-02-28T05:27:11;-5.80;99.90
18252;DHT22;26917;52.328;20.878;2023-02-28T05:29:39;-4.50;99.90
18252;DHT22;26917;52.328;20.878;2023-02-28T05:32:12;-5.60;99.90
18252;DHT22;26917;52.328;20.878;2023-02-28T05:34:40;-4.70;99.90
18252;DHT22;26917;52.328;20.878;2023-02-28T05:37:12;-5.70;99.90
18252;DHT22;26917;52.328;20.878;2023-02-28T05:39:41;-5.80;99.90
18252;DHT22;26917;52.328;20.878;2023-02-28T05:42:09;-6.00;99.90
18252;DHT22;26917;52.328;20.878;2023-02-28T05:44:38;-5.50;99.90
18252;DHT22;26917;52.328;20.878;2023-02-28T05:47:06;-5.70;99.90
18252;DHT22;26917;52.328;20.878;2023-02-28T05:49:36;-5.60;99.90
18252;DHT22;26917;52.328;20.878;2023-02-28T05:52:04;-5.20;99.90
18252;DHT22;26917;52.328;20.878;2023-02-28T05:54:32;-5.50;99.90
18252;DHT22;26917;52.328;20.878;2023-02-28T05:57:01;-5.40;99.90
18252;DHT22;26917;52.328;20.878;2023-02-28T05:59:35;-4.30;99.90
18252;DHT22;26917;52.328;20.878;2023-02-28T06:02:10;-5.00;99.90
18252;DHT22;26917;52.328;20.878;2023-02-28T06:04:41;-5.50;99.90
18252;DHT22;26917;52.328;20.878;2023-02-28T06:07:10;-5.50;99.90
18252;DHT22;26917;52.328;20.878;2023-02-28T06:09:38;-5.50;99.90
18252;DHT22;26917;52.328;20.878;2023-02-28T06:12:07;-4.20;99.90
18252;DHT22;26917;52.328;20.878;2023-02-28T06:14:36;-5.30;99.90
18252;DHT22;26917;52.328;20.878;2023-02-28T06:17:05;-5.40;99.90
18252;DHT22;26917;52.328;20.878;2023-02-28T06:19:33;-5.80;99.90
18252;DHT22;26917;52.328;20.878;2023-02-28T06:22:03;-3.90;99.90
18252;DHT22;26917;52.328;20.878;2023-02-28T06:24:31;-4.60;99.90
18252;DHT22;26917;52.328;20.878;2023-02-28T06:26:59;-4.20;99.90
18252;DHT22;26917;52.328;20.878;2023-02-28T06:29:32;-4.60;99.90
18252;DHT22;26917;52.328;20.878;2023-02-28T06:32:01;-5.20;99.90
18252;DHT22;26917;52.328;20.878;2023-02-28T06:34:29;-4.30;99.90
18252;DHT22;26917;52.328;20.878;2023-02-28T06:36:57;-5.00;99.90
18252;DHT22;26917;52.328;20.878;2023-02-28T06:39:31;-4.30;99.90
18252;DHT22;26917;52.328;20.878;2023-02-28T06:41:59;-3.00;99.90
18252;DHT22;26917;52.328;20.878;2023-02-28T06:44:27;-3.90;99.90
18252;DHT22;26917;52.328;20.878;2023-02-28T06:47:03;-4.70;99.90
18252;DHT22;26917;52.328;20.878;2023-02-28T06:49:33;-4.50;99.90
18252;DHT22;26917;52.328;20.878;2023-02-28T06:52:02;-3.40;99.90
18252;DHT22;26917;52.328;20.878;2023-02-28T06:54:32;-4.60;99.90
18252;DHT22;26917;52.328;20.878;2023-02-28T06:57:01;-4.70;99.90
18252;DHT22;26917;52.328;20.878;2023-02-28T06:59:29;-4.30;99.90
18252;DHT22;26917;52.328;20.878;2023-02-28T07:01:57;-4.40;99.90
18252;DHT22;26917;52.328;20.878;2023-02-28T07:04:25;-3.10;99.90
18252;DHT22;26917;52.328;20.878;2023-02-28T07:06:54;-4.30;99.90
18252;DHT22;26917;52.328;20.878;2023-02-28T07:09:23;-4.00;99.90
18252;DHT22;26917;52.328;20.878;2023-02-28T07:11:57;-3.40;99.90
18252;DHT22;26917;52.328;20.878;2023-02-28T07:14:27;-2.90;99.90
18252;DHT22;26917;52.328;20.878;2023-02-28T07:16:55;-2.90;99.90
18252;DHT22;26917;52.328;20.878;2023-02-28T07:19:24;-4.00;99.90
18252;DHT22;26917;52.328;20.878;2023-02-28T07:21:52;-3.70;99.90
18252;DHT22;26917;52.328;20.878;2023-02-28T07:24:20;-3.50;99.90
18252;DHT22;26917;52.328;20.878;2023-02-28T07:26:52;-3.50;99.90
18252;DHT22;26917;52.328;20.878;2023-02-28T07:29:22;-3.00;99.90
18252;DHT22;26917;52.328;20.878;2023-02-28T07:31:50;-3.00;99.90
18252;DHT22;26917;52.328;20.878;2023-02-28T07:34:20;-2.70;99.90
18252;DHT22;26917;52.328;20.878;2023-02-28T07:36:49;-3.20;99.90
18252;DHT22;26917;52.328;20.878;2023-02-28T07:39:21;-2.10;99.90
18252;DHT22;26917;52.328;20.878;2023-02-28T07:41:49;-2.20;99.90
18252;DHT22;26917;52.328;20.878;2023-02-28T07:44:18;-2.90;99.90
18252;DHT22;26917;52.328;20.878;2023-02-28T07:46:49;-2.00;99.90
18252;DHT22;26917;52.328;20.878;2023-02-28T07:49:17;-2.60;99.90
18252;DHT22;26917;52.328;20.878;2023-02-28T07:51:45;-2.60;99.90
18252;DHT22;26917;52.328;20.878;2023-02-28T07:54:14;-3.10;99.90
18252;DHT22;26917;52.328;20.878;2023-02-28T07:56:42;-2.50;99.90
18252;DHT22;26917;52.328;20.878;2023-02-28T07:59:10;-1.50;99.90
18252;DHT22;26917;52.328;20.878;2023-02-28T08:01:39;-2.10;99.90
18252;DHT22;26917;52.328;20.878;2023-02-28T08:04:09;-2.30;99.90
18252;DHT22;26917;52.328;20.878;2023-02-28T08:06:37;-2.20;99.90
18252;DHT22;26917;52.328;20.878;2023-02-28T08:09:05;-2.10;99.90
18252;DHT22;26917;52.328;20.878;2023-02-28T08:11:33;-2.00;99.90
18252;DHT22;26917;52.328;20.878;2023-02-28T08:14:03;-1.60;99.90
18252;DHT22;26917;52.328;20.878;2023-02-28T08:16:31;-1.30;99.90
18252;DHT22;26917;52.328;20.878;2023-02-28T08:18:59;-1.80;99.90
18252;DHT22;26917;52.328;20.878;2023-02-28T08:21:29;-1.30;99.90
18252;DHT22;26917;52.328;20.878;2023-02-28T08:23:57;-1.80;99.90
18252;DHT22;26917;52.328;20.878;2023-02-28T08:26:26;-1.90;99.90
18252;DHT22;26917;52.328;20.878;2023-02-28T08:28:55;-1.60;99.90
18252;DHT22;26917;52.328;20.878;2023-02-28T08:31:26;-1.20;99.90
18252;DHT22;26917;52.328;20.878;2023-02-28T08:33:54;-0.40;99.90
18252;DHT22;26917;52.328;20.878;2023-02-28T08:36:26;0.20;99.90
18252;DHT22;26917;52.328;20.878;2023-02-28T08:38:58;-0.70;99.90
18252;DHT22;26917;52.328;20.878;2023-02-28T08:41:26;0.10;99.90
18252;DHT22;26917;52.328;20.878;2023-02-28T08:43:55;-1.10;99.90
18252;DHT22;26917;52.328;20.878;2023-02-28T08:46:24;-0.80;99.90
18252;DHT22;26917;52.328;20.878;2023-02-28T08:48:52;-0.70;98.70
18252;DHT22;26917;52.328;20.878;2023-02-28T08:51:21;-0.60;99.30
18252;DHT22;26917;52.328;20.878;2023-02-28T08:53:55;-0.30;98.50
18252;DHT22;26917;52.328;20.878;2023-02-28T08:56:25;-0.60;98.70
18252;DHT22;26917;52.328;20.878;2023-02-28T08:58:55;-0.40;97.80
18252;DHT22;26917;52.328;20.878;2023-02-28T09:01:25;-0.50;96.60
18252;DHT22;26917;52.328;20.878;2023-02-28T09:03:56;-0.30;97.70
18252;DHT22;26917;52.328;20.878;2023-02-28T09:06:26;-0.70;97.60
18252;DHT22;26917;52.328;20.878;2023-02-28T09:08:56;0.20;98.90
18252;DHT22;26917;52.328;20.878;2023-02-28T09:11:28;-0.50;98.30
18252;DHT22;26917;52.328;20.878;2023-02-28T09:13:57;0.70;97.20
18252;DHT22;26917;52.328;20.878;2023-02-28T09:16:27;-0.30;97.20
18252;DHT22;26917;52.328;20.878;2023-02-28T09:18:55;-0.10;96.80
18252;DHT22;26917;52.328;20.878;2023-02-28T09:21:24;0.50;97.10
18252;DHT22;26917;52.328;20.878;2023-02-28T09:23:52;-0.10;96.70
18252;DHT22;26917;52.328;20.878;2023-02-28T09:26:23;-0.50;96.20
18252;DHT22;26917;52.328;20.878;2023-02-28T09:29:07;-0.10;96.30
18252;DHT22;26917;52.328;20.878;2023-02-28T09:31:36;0.70;97.70
18252;DHT22;26917;52.328;20.878;2023-02-28T09:34:05;1.00;98.50
18252;DHT22;26917;52.328;20.878;2023-02-28T09:36:33;-0.20;97.00
18252;DHT22;26917;52.328;20.878;2023-02-28T09:39:12;1.60;98.00
18252;DHT22;26917;52.328;20.878;2023-02-28T09:41:44;-0.30;95.40
18252;DHT22;26917;52.328;20.878;2023-02-28T09:44:24;0.70;96.20
18252;DHT22;26917;52.328;20.878;2023-02-28T09:46:58;0.70;96.40
18252;DHT22;26917;52.328;20.878;2023-02-28T09:49:36;0.50;94.70
18252;DHT22;26917;52.328;20.878;2023-02-28T09:52:10;0.50;94.40
18252;DHT22;26917;52.328;20.878;2023-02-28T09:54:40;0.90;95.60
18252;DHT22;26917;52.328;20.878;2023-02-28T09:57:17;0.60;95.60
18252;DHT22;26917;52.328;20.878;2023-02-28T10:00:03;0.60;95.00
18252;DHT22;26917;52.328;20.878;2023-02-28T10:02:54;1.60;95.50
18252;DHT22;26917;52.328;20.878;2023-02-28T10:05:28;0.50;94.90
18252;DHT22;26917;52.328;20.878;2023-02-28T10:08:05;1.50;95.60
18252;DHT22;26917;52.328;20.878;2023-02-28T10:10:39;0.60;95.70
18252;DHT22;26917;52.328;20.878;2023-02-28T10:13:15;0.30;94.00
18252;DHT22;26917;52.328;20.878;2023-02-28T10:15:49;0.70;94.70
18252;DHT22;26917;52.328;20.878;2023-02-28T10:18:23;1.00;94.90
18252;DHT22;26917;52.328;20.878;2023-02-28T10:20:54;1.30;95.00
18252;DHT22;26917;52.328;20.878;2023-02-28T10:23:26;1.00;95.10
18252;DHT22;26917;52.328;20.878;2023-02-28T10:25:59;0.90;94.30
18252;DHT22;26917;52.328;20.878;2023-02-28T10:28:32;2.20;95.40
18252;DHT22;26917;52.328;20.878;2023-02-28T10:31:03;2.00;95.30
18252;DHT22;26917;52.328;20.878;2023-02-28T10:33:33;1.00;94.60
18252;DHT22;26917;52.328;20.878;2023-02-28T10:36:03;1.50;95.30
18252;DHT22;26917;52.328;20.878;2023-02-28T10:38:35;1.10;94.40
18252;DHT22;26917;52.328;20.878;2023-02-28T10:41:08;1.00;95.00
18252;DHT22;26917;52.328;20.878;2023-02-28T10:43:42;1.10;94.50
18252;DHT22;26917;52.328;20.878;2023-02-28T10:46:23;2.60;95.20
18252;DHT22;26917;52.328;20.878;2023-02-28T10:49:02;1.70;94.40
18252;DHT22;26917;52.328;20.878;2023-02-28T10:51:39;1.90;94.50
18252;DHT22;26917;52.328;20.878;2023-02-28T10:54:22;1.50;94.80
18252;DHT22;26917;52.328;20.878;2023-02-28T10:57:09;0.50;93.80
18252;DHT22;26917;52.328;20.878;2023-02-28T10:59:42;2.30;93.80
18252;DHT22;26917;52.328;20.878;2023-02-28T11:02:33;3.00;93.10
18252;DHT22;26917;52.328;20.878;2023-02-28T11:05:10;1.80;92.10
18252;DHT22;26917;52.328;20.878;2023-02-28T11:08:14;1.90;92.30
18252;DHT22;26917;52.328;20.878;2023-02-28T11:10:46;1.30;91.30
18252;DHT22;26917;52.328;20.878;2023-02-28T11:13:21;3.10;92.10
18252;DHT22;26917;52.328;20.878;2023-02-28T11:15:52;2.60;92.70
18252;DHT22;26917;52.328;20.878;2023-02-28T11:18:29;2.20;92.40
18252;DHT22;26917;52.328;20.878;2023-02-28T11:20:59;2.20;92.30
18252;DHT22;26917;52.328;20.878;2023-02-28T11:23:31;2.60;92.70
18252;DHT22;26917;52.328;20.878;2023-02-28T11:26:04;2.90;93.10
18252;DHT22;26917;52.328;20.878;2023-02-28T11:28:38;2.10;93.50
18252;DHT22;26917;52.328;20.878;2023-02-28T11:31:25;1.90;93.80
18252;DHT22;26917;52.328;20.878;2023-02-28T11:34:26;1.90;92.90
18252;DHT22;26917;52.328;20.878;2023-02-28T11:36:57;1.80;93.00
18252;DHT22;26917;52.328;20.878;2023-02-28T11:39:26;2.50;92.60
18252;DHT22;26917;52.328;20.878;2023-02-28T11:42:09;2.20;92.30
18252;DHT22;26917;52.328;20.878;2023-02-28T11:44:49;3.60;92.40
18252;DHT22;26917;52.328;20.878;2023-02-28T11:47:29;3.50;92.70
18252;DHT22;26917;52.328;20.878;2023-02-28T11:50:29;3.30;92.70
18252;DHT22;26917;52.328;20.878;2023-02-28T11:53:01;3.40;93.40
18252;DHT22;26917;52.328;20.878;2023-02-28T11:55:35;3.70;91.90
18252;DHT22;26917;52.328;20.878;2023-02-28T11:58:21;2.50;92.60
18252;DHT22;26917;52.328;20.878;2023-02-28T12:01:01;2.70;91.80
18252;DHT22;26917;52.328;20.878;2023-02-28T12:03:43;2.80;92.30
18252;DHT22;26917;52.328;20.878;2023-02-28T12:06:21;3.00;91.90
18252;DHT22;26917;52.328;20.878;2023-02-28T12:09:02;2.80;91.00
18252;DHT22;26917;52.328;20.878;2023-02-28T12:11:50;3.60;91.50
18252;DHT22;26917;52.328;20.878;2023-02-28T12:17:43;2.60;91.50
18252;DHT22;26917;52.328;20.878;2023-02-28T12:20:28;2.60;90.90
18252;DHT22;26917;52.328;20.878;2023-02-28T12:23:19;4.10;92.00
18252;DHT22;26917;52.328;20.878;2023-02-28T12:25:59;3.10;91.40
18252;DHT22;26917;52.328;20.878;2023-02-28T12:28:34;3.70;91.40
18252;DHT22;26917;52.328;20.878;2023-02-28T12:31:08;3.20;91.10
18252;DHT22;26917;52.328;20.878;2023-02-28T12:33:42;3.40;91.60
18252;DHT22;26917;52.328;20.878;2023-02-28T12:36:15;2.90;91.90
18252;DHT22;26917;52.328;20.878;2023-02-28T12:38:50;2.50;92.30
18252;DHT22;26917;52.328;20.878;2023-02-28T12:41:26;3.20;91.80
18252;DHT22;26917;52.328;20.878;2023-02-28T12:44:01;3.50;91.30
18252;DHT22;26917;52.328;20.878;2023-02-28T12:46:33;3.40;91.50
18252;DHT22;26917;52.328;20.878;2023-02-28T12:49:08;2.20;91.70
18252;DHT22;26917;52.328;20.878;2023-02-28T12:51:38;3.00;92.10
18252;DHT22;26917;52.328;20.878;2023-02-28T12:54:19;3.50;92.30
18252;DHT22;26917;52.328;20.878;2023-02-28T12:56:56;2.40;92.20
18252;DHT22;26917;52.328;20.878;2023-02-28T12:59:37;3.20;92.70
18252;DHT22;26917;52.328;20.878;2023-02-28T13:02:39;2.60;93.30
18252;DHT22;26917;52.328;20.878;2023-02-28T13:05:26;2.20;93.20
18252;DHT22;26917;52.328;20.878;2023-02-28T13:11:07;2.20;92.90
18252;DHT22;26917;52.328;20.878;2023-02-28T13:13:47;1.80;92.30
18252;DHT22;26917;52.328;20.878;2023-02-28T13:16:16;3.20;92.10
18252;DHT22;26917;52.328;20.878;2023-02-28T13:18:46;2.60;92.40
18252;DHT22;26917;52.328;20.878;2023-02-28T13:21:23;2.50;92.20
18252;DHT22;26917;52.328;20.878;2023-02-28T13:24:01;3.20;92.50
18252;DHT22;26917;52.328;20.878;2023-02-28T13:29:39;2.40;92.50
18252;DHT22;26917;52.328;20.878;2023-02-28T13:32:42;3.30;92.20
18252;DHT22;26917;52.328;20.878;2023-02-28T13:38:17;1.60;92.20
18252;DHT22;26917;52.328;20.878;2023-02-28T13:40:49;2.20;91.40
18252;DHT22;26917;52.328;20.878;2023-02-28T13:43:18;3.40;92.00
18252;DHT22;26917;52.328;20.878;2023-02-28T13:46:21;2.50;91.70
18252;DHT22;26917;52.328;20.878;2023-02-28T13:48:50;1.80;92.60
18252;DHT22;26917;52.328;20.878;2023-02-28T13:51:39;2.50;92.90
18252;DHT22;26917;52.328;20.878;2023-02-28T13:54:20;2.10;92.90
18252;DHT22;26917;52.328;20.878;2023-02-28T13:57:01;2.60;93.20
18252;DHT22;26917;52.328;20.878;2023-02-28T13:59:39;1.40;92.70
18252;DHT22;26917;52.328;20.878;2023-02-28T14:02:33;2.30;93.60
18252;DHT22;26917;52.328;20.878;2023-02-28T14:05:06;2.00;93.40
18252;DHT22;26917;52.328;20.878;2023-02-28T14:07:44;2.80;94.60
18252;DHT22;26917;52.328;20.878;2023-02-28T14:10:24;3.00;94.60
18252;DHT22;26917;52.328;20.878;2023-02-28T14:13:02;2.70;93.60
18252;DHT22;26917;52.328;20.878;2023-02-28T14:15:45;1.90;92.80
18252;DHT22;26917;52.328;20.878;2023-02-28T14:18:25;1.30;92.10
18252;DHT22;26917;52.328;20.878;2023-02-28T14:21:09;3.50;93.80
18252;DHT22;26917;52.328;20.878;2023-02-28T14:24:01;2.10;92.50
18252;DHT22;26917;52.328;20.878;2023-02-28T14:26:47;1.60;91.40
18252;DHT22;26917;52.328;20.878;2023-02-28T14:29:32;2.40;91.20
18252;DHT22;26917;52.328;20.878;2023-02-28T14:32:10;2.00;91.90
18252;DHT22;26917;52.328;20.878;2023-02-28T14:34:45;3.00;92.20
18252;DHT22;26917;52.328;20.878;2023-02-28T14:37:23;2.30;91.90
18252;DHT22;26917;52.328;20.878;2023-02-28T14:39:54;2.80;91.20
18252;DHT22;26917;52.328;20.878;2023-02-28T14:42:32;1.80;91.50
18252;DHT22;26917;52.328;20.878;2023-02-28T14:45:01;3.30;92.70
18252;DHT22;26917;52.328;20.878;2023-02-28T14:47:32;2.00;90.70
18252;DHT22;26917;52.328;20.878;2023-02-28T14:50:04;2.30;89.90
18252;DHT22;26917;52.328;20.878;2023-02-28T14:52:33;2.30;91.00
18252;DHT22;26917;52.328;20.878;2023-02-28T14:55:05;2.80;90.50
18252;DHT22;26917;52.328;20.878;2023-02-28T14:57:40;2.10;91.40
18252;DHT22;26917;52.328;20.878;2023-02-28T15:00:14;3.60;93.30
18252;DHT22;26917;52.328;20.878;2023-02-28T15:02:44;1.90;92.30
18252;DHT22;26917;52.328;20.878;2023-02-28T15:05:30;2.00;93.20
18252;DHT22;26917;52.328;20.878;2023-02-28T15:08:10;1.80;91.40
18252;DHT22;26917;52.328;20.878;2023-02-28T15:10:39;1.90;91.00
18252;DHT22;26917;52.328;20.878;2023-02-28T15:13:12;2.00;92.30
18252;DHT22;26917;52.328;20.878;2023-02-28T15:15:48;2.10;92.30
18252;DHT22;26917;52.328;20.878;2023-02-28T15:18:39;1.40;92.60
18252;DHT22;26917;52.328;20.878;2023-02-28T15:21:13;1.60;93.50
18252;DHT22;26917;52.328;20.878;2023-02-28T15:23:46;1.50;94.00
18252;DHT22;26917;52.328;20.878;2023-02-28T15:26:16;1.40;94.10
18252;DHT22;26917;52.328;20.878;2023-02-28T15:28:57;1.30;94.20
18252;DHT22;26917;52.328;20.878;2023-02-28T15:31:29;1.10;94.50
18252;DHT22;26917;52.328;20.878;2023-02-28T15:34:18;1.00;94.40
18252;DHT22;26917;52.328;20.878;2023-02-28T15:36:50;0.90;94.80
18252;DHT22;26917;52.328;20.878;2023-02-28T15:39:21;0.80;95.20
18252;DHT22;26917;52.328;20.878;2023-02-28T15:41:50;0.70;95.30
18252;DHT22;26917;52.328;20.878;2023-02-28T15:44:25;0.70;95.60
18252;DHT22;26917;52.328;20.878;2023-02-28T15:47:01;0.60;95.60
18252;DHT22;26917;52.328;20.878;2023-02-28T15:49:39;0.50;95.60
18252;DHT22;26917;52.328;20.878;2023-02-28T15:52:16;0.40;95.90
18252;DHT22;26917;52.328;20.878;2023-02-28T15:54:46;0.50;96.30
18252;DHT22;26917;52.328;20.878;2023-02-28T15:57:18;0.20;96.30
18252;DHT22;26917;52.328;20.878;2023-02-28T15:59:54;0.10;96.90
18252;DHT22;26917;52.328;20.878;2023-02-28T16:02:31;0.30;97.10
18252;DHT22;26917;52.328;20.878;2023-02-28T16:05:12;-0.10;97.50
18252;DHT22;26917;52.328;20.878;2023-02-28T16:07:47;-0.20;97.60
18252;DHT22;26917;52.328;20.878;2023-02-28T16:10:16;-0.30;97.50
18252;DHT22;26917;52.328;20.878;2023-02-28T16:12:44;-0.40;97.70
18252;DHT22;26917;52.328;20.878;2023-02-28T16:15:19;-0.50;97.80
18252;DHT22;26917;52.328;20.878;2023-02-28T16:17:48;-0.60;98.00